Hlavní strana
METAR-TAF:

METAR-TAF

Letiště :

Olive Branch Airport

Olive Branch, Mississippi, Spojené státy americké

zeměpisná šířka: 34-58-44N, zeměpisná délka: 089-47-13W, výška: 122 m

Aktuální stav počasí

Zpráva byla vytvořena před 21 hodinami a 44 minutami, v 23:50 UTC
Západní vítr 4 kt
Teplota 22°C
Vlhkost vzduchu 100%
Tlak 1012 hPa
Viditelnost: 16.1 km
Polojasno ve výšce 2200 ft
Oblačno až skoro zataženo ve výšce 7500 ft
Zataženo ve výšce 25000 ft

METAR: KOLV 202350Z 26004KT 10SM SCT022 BKN075 OVC250 22/22 A2989

Čas: 16:34 (21:34 UTC)


TAF: chybějící

Stav a předpovědi počasí z více než 4 000 letišť (zprávy METAR a TAF).

Červené a žluté tečky na mapě představují dostupné meteorologické stanice.

Když kurzor umístíte na tečku, zobrazí se název stanice.

Pak kliknutím zobrazíte stav a předpověď počasí.

Chcete-li změnit mapu, kliknutím na zelené tlačítko se znaménkem +mapu přiblížíte, kliknutím na zelené tlačítko se znaménkem – mapu oddálíte a kliknutím na zelené šipky přejdete na sousední mapy.


METAR-TAF: